Zion National Park, Utah
Current Conditions -  °F | °C
As of 9:15 PM on Wednesday 26 Nov 2014 (Local Time) from KAZC Reporting Station
Clear Clear  
Wind Chill: 27°   Ceiling: Unl
Heat Index: 33°   Visibility: 10mi
Dew Point: 17°   Wind: 6mph
Humidity: 53%   Direction: 170°S
Pressure: 30.44"   Gusts: NA
Location:  37.1888°N, 113°W
Report Text: KAZC 270415Z AUTO 17005KT 10SM CLR 01/M08 A3044 RMK AO2 T00051081
Loading
Personal Weather Stations






























Interactive Weather Map New forecast layout! Learn more

10-Day Weather Forecast

Advertisements
Track Severe Weather on mobile